createdAt,value
2019-03-04T00:00:45.510Z,11.87
2019-03-04T00:03:13.142Z,11.88
2019-03-04T00:05:40.401Z,11.90
2019-03-04T00:08:07.679Z,11.84
2019-03-04T00:10:34.969Z,11.75
2019-03-04T00:13:02.375Z,11.89
2019-03-04T00:15:29.619Z,11.80
2019-03-04T00:17:56.862Z,11.97
2019-03-04T00:20:24.156Z,12.02
2019-03-04T00:22:51.422Z,11.99
2019-03-04T00:25:18.739Z,11.96
2019-03-04T00:27:45.992Z,11.94
2019-03-04T00:30:13.253Z,11.97
2019-03-04T00:32:40.636Z,11.91
2019-03-04T00:35:07.999Z,11.98
2019-03-04T00:37:35.260Z,12.05
2019-03-04T00:40:02.690Z,11.97
2019-03-04T00:42:29.909Z,11.89
2019-03-04T00:44:57.202Z,11.98
2019-03-04T00:47:24.439Z,11.83
2019-03-04T00:49:51.679Z,11.86
2019-03-04T00:52:18.941Z,11.80
2019-03-04T00:54:46.184Z,11.80
2019-03-04T00:57:13.427Z,11.74
2019-03-04T00:59:40.697Z,11.73
2019-03-04T01:02:07.934Z,11.66
2019-03-04T01:04:35.197Z,11.73
2019-03-04T01:07:02.514Z,11.69
2019-03-04T01:09:29.798Z,11.69
2019-03-04T01:11:57.109Z,11.77
2019-03-04T01:14:24.451Z,11.82
2019-03-04T01:16:51.723Z,11.78
2019-03-04T01:19:19.006Z,11.81
2019-03-04T01:21:46.257Z,11.86
2019-03-04T01:24:13.502Z,11.88
2019-03-04T01:26:40.822Z,11.99
2019-03-04T01:29:08.093Z,11.94
2019-03-04T01:31:35.337Z,11.94
2019-03-04T01:34:02.584Z,11.94
2019-03-04T01:36:29.893Z,12.01
2019-03-04T01:38:57.151Z,12.00
2019-03-04T01:41:24.397Z,11.96
2019-03-04T01:43:51.676Z,11.93
2019-03-04T01:46:18.924Z,11.90
2019-03-04T01:48:46.191Z,11.90
2019-03-04T01:51:13.482Z,12.06
2019-03-04T01:53:40.735Z,12.06
2019-03-04T01:56:07.976Z,12.12
2019-03-04T01:58:35.268Z,12.17
2019-03-04T02:01:02.556Z,12.14
2019-03-04T02:03:29.815Z,12.15
2019-03-04T02:05:57.061Z,11.99
2019-03-04T02:08:24.431Z,12.09
2019-03-04T02:10:51.713Z,12.08
2019-03-04T02:13:18.998Z,12.07
2019-03-04T02:15:46.373Z,12.00
2019-03-04T02:18:13.624Z,11.99
2019-03-04T02:20:40.966Z,12.04
2019-03-04T02:23:08.221Z,11.99
2019-03-04T02:26:19.148Z,11.93
2019-03-04T02:28:46.417Z,11.95
2019-03-04T02:31:13.824Z,11.93
2019-03-04T02:33:41.068Z,11.93
2019-03-04T02:36:08.339Z,11.97
2019-03-04T02:38:35.599Z,11.99
2019-03-04T02:41:02.883Z,11.95
2019-03-04T02:43:30.141Z,11.90
2019-03-04T02:45:57.405Z,11.97
2019-03-04T02:48:24.783Z,11.92
2019-03-04T02:50:52.052Z,11.92
2019-03-04T02:53:19.325Z,12.00
2019-03-04T02:55:46.588Z,12.04
2019-03-04T02:58:13.849Z,12.06
2019-03-04T03:00:41.446Z,11.98
2019-03-04T03:03:08.705Z,11.94
2019-03-04T03:05:35.988Z,12.12
2019-03-04T03:08:03.339Z,12.06
2019-03-04T03:10:30.601Z,12.03
2019-03-04T03:12:57.904Z,11.95
2019-03-04T03:15:25.685Z,11.97
2019-03-04T03:17:52.978Z,11.90
2019-03-04T03:20:20.237Z,11.89
2019-03-04T03:22:47.482Z,11.81
2019-03-04T03:25:14.948Z,11.87
2019-03-04T03:27:42.231Z,11.79
2019-03-04T03:30:10.033Z,11.79
2019-03-04T03:32:37.276Z,11.67
2019-03-04T03:35:08.024Z,11.74
2019-03-04T03:37:34.672Z,11.89
2019-03-04T03:40:01.973Z,11.80
2019-03-04T03:42:29.208Z,11.78
2019-03-04T03:44:56.482Z,11.68
2019-03-04T03:47:23.720Z,11.61
2019-03-04T03:49:50.981Z,11.60
2019-03-04T03:52:18.309Z,11.65
2019-03-04T03:54:45.614Z,11.66
2019-03-04T03:57:12.881Z,11.59
2019-03-04T03:59:40.139Z,11.69
2019-03-04T04:02:07.481Z,11.70
2019-03-04T04:04:34.741Z,11.59
2019-03-04T04:07:01.970Z,11.55
2019-03-04T04:09:29.266Z,11.50
2019-03-04T04:11:56.592Z,11.38
2019-03-04T04:14:23.895Z,11.20
2019-03-04T04:16:51.159Z,11.20
2019-03-04T04:19:18.424Z,11.33
2019-03-04T04:21:45.719Z,11.40
2019-03-04T04:24:12.968Z,11.40
2019-03-04T04:26:40.232Z,11.44
2019-03-04T04:29:11.197Z,11.38
2019-03-04T04:31:38.535Z,11.10
2019-03-04T04:34:05.897Z,10.73
2019-03-04T04:36:33.179Z,10.72
2019-03-04T04:39:01.521Z,10.89
2019-03-04T04:41:28.954Z,10.68
2019-03-04T04:43:56.220Z,10.68
2019-03-04T04:46:59.304Z,10.67
2019-03-04T04:49:29.265Z,10.55
2019-03-04T04:51:56.583Z,10.56
2019-03-04T04:54:23.822Z,10.48
2019-03-04T04:56:51.110Z,10.56
2019-03-04T04:59:18.361Z,10.56
2019-03-04T05:01:45.584Z,10.56
2019-03-04T05:04:12.845Z,10.64
2019-03-04T05:06:41.549Z,10.55
2019-03-04T05:09:08.827Z,10.56
2019-03-04T05:11:36.142Z,10.46
2019-03-04T05:14:04.288Z,10.46
2019-03-04T05:16:31.536Z,10.32
2019-03-04T05:18:58.776Z,10.31
2019-03-04T05:21:26.055Z,10.30
2019-03-04T05:23:53.372Z,10.46
2019-03-04T05:26:20.610Z,10.46
2019-03-04T05:28:47.839Z,10.47
2019-03-04T05:31:16.242Z,10.49
2019-03-04T05:33:43.489Z,10.52
2019-03-04T05:36:10.757Z,10.50
2019-03-04T05:38:38.002Z,10.48
2019-03-04T05:41:05.253Z,10.57
2019-03-04T05:43:32.482Z,10.66
2019-03-04T05:45:59.710Z,10.57
2019-03-04T05:48:26.988Z,10.37
2019-03-04T05:50:54.234Z,10.37
2019-03-04T05:53:21.452Z,10.32
2019-03-04T05:55:48.736Z,10.29
2019-03-04T05:58:15.976Z,9.72
2019-03-04T06:00:43.841Z,9.74
2019-03-04T06:03:11.688Z,9.74
2019-03-04T06:05:38.961Z,9.56
2019-03-04T06:08:07.302Z,9.64
2019-03-04T06:10:34.595Z,9.27
2019-03-04T06:13:03.989Z,9.27
2019-03-04T06:15:34.036Z,9.50
2019-03-04T06:18:01.291Z,9.30
2019-03-04T06:20:29.572Z,9.22
2019-03-04T06:22:56.821Z,9.14
2019-03-04T06:25:25.770Z,9.17
2019-03-04T06:27:53.384Z,9.16
2019-03-04T06:30:24.538Z,9.02
2019-03-04T06:32:51.900Z,8.99
2019-03-04T06:35:19.186Z,8.87
2019-03-04T06:37:47.632Z,8.92
2019-03-04T06:40:15.058Z,8.88
2019-03-04T06:42:42.300Z,8.90
2019-03-04T06:45:11.518Z,8.78
2019-03-04T06:47:38.902Z,8.83
2019-03-04T06:50:07.767Z,8.87
2019-03-04T06:52:34.996Z,8.95
2019-03-04T06:55:33.698Z,8.92
2019-03-04T06:58:00.964Z,8.93
2019-03-04T07:00:46.044Z,8.93
2019-03-04T07:03:26.444Z,8.89
2019-03-04T07:05:53.815Z,8.87
2019-03-04T07:08:59.955Z,8.83
2019-03-04T07:11:27.692Z,8.80
2019-03-04T07:13:55.965Z,8.82
2019-03-04T07:16:23.212Z,8.74
2019-03-04T07:18:50.438Z,8.81
2019-03-04T07:21:17.686Z,8.77
2019-03-04T07:23:44.915Z,8.87
2019-03-04T07:26:12.205Z,8.79
2019-03-04T07:28:39.427Z,8.78
2019-03-04T07:31:06.669Z,8.73
2019-03-04T07:33:33.962Z,8.86
2019-03-04T07:36:01.279Z,8.86
2019-03-04T07:38:41.451Z,9.03
2019-03-04T07:41:08.703Z,9.02
2019-03-04T07:43:35.974Z,9.01
2019-03-04T07:46:03.440Z,9.07
2019-03-04T07:48:30.695Z,9.06
2019-03-04T07:51:09.761Z,9.09
2019-03-04T07:53:46.005Z,9.09
2019-03-04T07:56:07.620Z,9.16
2019-03-04T07:58:35.004Z,8.81
2019-03-04T08:01:02.367Z,8.77
2019-03-04T08:03:29.660Z,8.53
2019-03-04T08:05:57.753Z,8.57
2019-03-04T08:08:25.298Z,8.46
2019-03-04T08:11:32.732Z,8.47
2019-03-04T08:14:01.135Z,8.56
2019-03-04T08:16:28.370Z,8.55
2019-03-04T08:18:55.668Z,8.59
2019-03-04T08:21:22.929Z,8.40
2019-03-04T08:23:50.182Z,8.44
2019-03-04T08:26:17.550Z,8.34
2019-03-04T08:28:44.941Z,8.39
2019-03-04T08:31:12.667Z,8.43
2019-03-04T08:33:41.318Z,8.37
2019-03-04T08:36:08.567Z,8.24
2019-03-04T08:38:35.868Z,8.42
2019-03-04T08:41:03.341Z,8.16
2019-03-04T08:43:31.624Z,8.40
2019-03-04T08:45:58.884Z,8.23
2019-03-04T08:48:26.178Z,8.12
2019-03-04T08:50:53.415Z,8.19
2019-03-04T08:53:20.688Z,8.48
2019-03-04T08:55:47.926Z,8.32
2019-03-04T08:58:15.156Z,8.32
2019-03-04T09:00:42.438Z,8.23
2019-03-04T09:03:09.702Z,8.27
2019-03-04T09:05:36.962Z,8.30
2019-03-04T09:08:04.259Z,8.14
2019-03-04T09:10:31.519Z,8.21
2019-03-04T09:12:58.869Z,8.21
2019-03-04T09:15:26.600Z,8.27
2019-03-04T09:17:53.840Z,8.01
2019-03-04T09:20:22.296Z,8.06
2019-03-04T09:22:49.577Z,8.22
2019-03-04T09:25:30.054Z,8.07
2019-03-04T09:27:52.367Z,8.07
2019-03-04T09:30:19.862Z,7.96
2019-03-04T09:32:47.102Z,8.23
2019-03-04T09:35:14.714Z,8.10
2019-03-04T09:37:42.482Z,8.32
2019-03-04T09:40:11.597Z,8.11
2019-03-04T09:42:39.110Z,8.13
2019-03-04T09:45:06.955Z,8.11
2019-03-04T09:47:34.198Z,8.05
2019-03-04T09:50:01.494Z,7.86
2019-03-04T09:52:28.748Z,7.88
2019-03-04T09:54:56.012Z,8.09
2019-03-04T09:57:23.315Z,7.91
2019-03-04T09:59:50.605Z,7.96
2019-03-04T10:02:26.194Z,7.92
2019-03-04T10:05:03.273Z,7.98
2019-03-04T10:07:52.358Z,8.20
2019-03-04T10:11:12.689Z,8.05
2019-03-04T10:14:02.050Z,8.10
2019-03-04T10:17:29.346Z,7.88
2019-03-04T10:20:25.917Z,7.92
2019-03-04T10:23:10.124Z,7.83
2019-03-04T10:26:22.154Z,7.94
2019-03-04T10:29:19.678Z,7.96
2019-03-04T10:32:20.741Z,8.00
2019-03-04T10:35:38.773Z,7.94
2019-03-04T10:38:50.858Z,8.14
2019-03-04T10:41:35.670Z,8.02
2019-03-04T10:44:29.024Z,8.13
2019-03-04T10:46:59.553Z,8.31
2019-03-04T10:49:30.531Z,8.29
2019-03-04T10:51:57.969Z,8.31
2019-03-04T10:54:25.236Z,8.10
2019-03-04T10:56:52.469Z,8.02
2019-03-04T10:59:20.714Z,8.08
2019-03-04T11:01:50.023Z,8.29
2019-03-04T11:04:18.536Z,8.29
2019-03-04T11:06:46.287Z,8.45
2019-03-04T11:09:13.684Z,8.40
2019-03-04T11:11:40.926Z,8.38
2019-03-04T11:14:08.202Z,8.54
2019-03-04T11:16:35.592Z,8.38
2019-03-04T11:19:03.291Z,8.23
2019-03-04T11:21:30.840Z,8.26
2019-03-04T11:23:58.127Z,8.38
2019-03-04T11:26:25.399Z,8.35
2019-03-04T11:28:52.658Z,8.34
2019-03-04T11:31:19.957Z,8.31
2019-03-04T11:33:47.214Z,8.34
2019-03-04T11:36:14.447Z,8.27
2019-03-04T11:38:44.312Z,8.44
2019-03-04T11:41:14.466Z,8.46
2019-03-04T11:43:41.696Z,8.69
2019-03-04T11:46:09.040Z,8.58
2019-03-04T11:48:36.286Z,8.63
2019-03-04T11:51:03.742Z,8.76
2019-03-04T11:53:31.027Z,8.60
2019-03-04T11:55:59.176Z,8.61
2019-03-04T11:58:28.727Z,8.57
2019-03-04T12:01:18.149Z,8.51
2019-03-04T12:03:47.496Z,8.65
2019-03-04T12:06:14.859Z,8.56
2019-03-04T12:08:42.305Z,8.82
2019-03-04T12:11:09.544Z,8.46
2019-03-04T12:13:36.819Z,8.60
2019-03-04T12:16:04.226Z,8.38
2019-03-04T12:18:31.536Z,8.47
2019-03-04T12:20:58.777Z,8.38
2019-03-04T12:23:26.024Z,8.50
2019-03-04T12:25:53.370Z,8.49
2019-03-04T12:28:21.722Z,8.29
2019-03-04T12:30:48.945Z,8.34
2019-03-04T12:33:16.244Z,8.51
2019-03-04T12:35:43.815Z,8.38
2019-03-04T12:38:11.100Z,8.59
2019-03-04T12:40:38.387Z,8.56
2019-03-04T12:43:05.620Z,8.59
2019-03-04T12:45:34.575Z,8.62
2019-03-04T12:48:02.019Z,8.51
2019-03-04T12:50:29.382Z,8.58
2019-03-04T12:52:56.771Z,8.43
2019-03-04T12:55:24.028Z,8.51
2019-03-04T12:57:51.301Z,8.43
2019-03-04T13:00:19.932Z,8.36
2019-03-04T13:02:56.699Z,8.31
2019-03-04T13:05:16.500Z,8.52
2019-03-04T13:07:43.807Z,8.43
2019-03-04T13:10:11.702Z,8.11
2019-03-04T13:12:41.088Z,8.38
2019-03-04T13:15:12.137Z,8.19
2019-03-04T13:17:40.759Z,8.46
2019-03-04T13:20:09.314Z,8.38
2019-03-04T13:22:36.600Z,8.30
2019-03-04T13:25:04.163Z,8.22
2019-03-04T13:27:31.450Z,8.40
2019-03-04T13:29:58.689Z,8.10
2019-03-04T13:32:25.927Z,8.29
2019-03-04T13:34:53.204Z,8.21
2019-03-04T13:37:20.437Z,8.17
2019-03-04T13:39:47.684Z,8.34
2019-03-04T13:42:14.976Z,8.39
2019-03-04T13:44:42.205Z,8.42
2019-03-04T13:47:09.532Z,8.35
2019-03-04T13:49:36.834Z,8.38
2019-03-04T13:52:04.091Z,8.36
2019-03-04T13:54:31.432Z,8.34
2019-03-04T13:56:58.711Z,8.34
2019-03-04T13:59:25.963Z,8.53
2019-03-04T14:01:54.257Z,8.38
2019-03-04T14:04:21.512Z,8.45
2019-03-04T14:06:48.793Z,8.44
2019-03-04T14:09:18.787Z,8.51
2019-03-04T14:11:46.157Z,8.50
2019-03-04T14:14:13.405Z,8.70
2019-03-04T14:16:40.785Z,8.64
2019-03-04T14:19:08.067Z,8.59
2019-03-04T14:21:35.317Z,8.56
2019-03-04T14:24:02.699Z,8.32
2019-03-04T14:26:29.969Z,8.45
2019-03-04T14:28:57.215Z,8.67
2019-03-04T14:31:24.512Z,8.55
2019-03-04T14:33:51.818Z,8.45
2019-03-04T14:36:19.127Z,8.52
2019-03-04T14:38:46.469Z,8.64
2019-03-04T14:41:13.719Z,8.80
2019-03-04T14:43:40.968Z,8.68
2019-03-04T14:46:15.095Z,8.67
2019-03-04T14:48:42.402Z,8.69
2019-03-04T14:51:09.632Z,8.64
2019-03-04T14:53:41.658Z,8.52
2019-03-04T14:56:08.912Z,8.64
2019-03-04T14:58:36.244Z,8.77
2019-03-04T15:01:04.404Z,8.69
2019-03-04T15:03:36.598Z,9.01
2019-03-04T15:06:07.165Z,8.61
2019-03-04T15:08:34.433Z,8.57
2019-03-04T15:11:01.702Z,8.58
2019-03-04T15:13:28.954Z,8.72
2019-03-04T15:16:02.468Z,8.78
2019-03-04T15:18:25.478Z,8.81
2019-03-04T15:20:52.739Z,8.58
2019-03-04T15:23:20.233Z,8.62
2019-03-04T15:25:47.536Z,8.61
2019-03-04T15:28:19.168Z,8.74
2019-03-04T15:30:48.224Z,8.69
2019-03-04T15:33:18.354Z,8.51
2019-03-04T15:35:44.865Z,8.54
2019-03-04T15:38:12.180Z,8.77
2019-03-04T15:40:39.536Z,8.81
2019-03-04T15:43:06.852Z,8.85
2019-03-04T15:45:34.620Z,8.78
2019-03-04T15:48:02.107Z,8.97
2019-03-04T15:50:30.424Z,8.87
2019-03-04T15:53:00.638Z,8.85
2019-03-04T15:55:28.372Z,8.87
2019-03-04T15:57:55.626Z,8.94
2019-03-04T16:00:23.111Z,8.85
2019-03-04T16:02:50.576Z,8.96
2019-03-04T16:05:17.897Z,8.87
2019-03-04T16:07:45.283Z,9.02
2019-03-04T16:10:14.303Z,9.04
2019-03-04T16:12:42.294Z,9.07
2019-03-04T16:15:11.779Z,8.94
2019-03-04T16:17:39.261Z,8.90
2019-03-04T16:20:15.818Z,8.81
2019-03-04T16:22:38.243Z,8.97
2019-03-04T16:25:06.127Z,9.02
2019-03-04T16:27:33.392Z,8.95
2019-03-04T16:30:00.674Z,8.81
2019-03-04T16:32:27.975Z,9.12
2019-03-04T16:34:55.348Z,8.95
2019-03-04T16:37:22.626Z,8.89
2019-03-04T16:39:50.044Z,8.86
2019-03-04T16:42:17.322Z,8.73
2019-03-04T16:44:44.575Z,8.61
2019-03-04T16:47:11.842Z,8.66
2019-03-04T16:49:39.105Z,8.61
2019-03-04T16:52:07.702Z,8.61
2019-03-04T16:54:35.206Z,8.73
2019-03-04T16:57:11.965Z,8.69
2019-03-04T16:59:42.880Z,8.63
2019-03-04T17:02:10.280Z,8.63
2019-03-04T17:04:37.562Z,8.59
2019-03-04T17:07:10.973Z,8.91
2019-03-04T17:09:38.243Z,8.84
2019-03-04T17:12:09.095Z,8.85
2019-03-04T17:14:36.397Z,8.73
2019-03-04T17:17:10.017Z,8.72
2019-03-04T17:19:37.343Z,8.70
2019-03-04T17:22:04.659Z,8.67
2019-03-04T17:24:31.910Z,8.70
2019-03-04T17:26:59.131Z,8.65
2019-03-04T17:29:26.433Z,8.72
2019-03-04T17:31:53.727Z,8.56
2019-03-04T17:34:21.007Z,8.69
2019-03-04T17:36:48.245Z,8.61
2019-03-04T17:39:15.551Z,8.61
2019-03-04T17:41:42.930Z,8.68
2019-03-04T17:44:10.418Z,8.56
2019-03-04T17:46:37.712Z,8.69
2019-03-04T17:49:04.952Z,8.52
2019-03-04T17:51:32.183Z,8.58
2019-03-04T17:53:59.560Z,8.54
2019-03-04T17:56:26.796Z,8.74
2019-03-04T17:58:54.041Z,8.65
2019-03-04T18:01:21.323Z,8.69
2019-03-04T18:03:48.830Z,8.71
2019-03-04T18:06:16.069Z,8.85
2019-03-04T18:08:44.547Z,8.58
2019-03-04T18:11:11.794Z,8.62
2019-03-04T18:13:39.058Z,8.61
2019-03-04T18:16:06.370Z,8.58
2019-03-04T18:18:34.796Z,8.60
2019-03-04T18:21:02.055Z,8.68
2019-03-04T18:23:29.334Z,8.70
2019-03-04T18:26:00.938Z,8.71
2019-03-04T18:29:09.959Z,8.62
2019-03-04T18:32:34.897Z,8.62
2019-03-04T18:36:03.769Z,8.61
2019-03-04T18:39:14.336Z,8.58
2019-03-04T18:42:44.157Z,8.45
2019-03-04T18:46:01.948Z,8.61
2019-03-04T18:48:55.351Z,8.41
2019-03-04T18:51:23.504Z,8.55
2019-03-04T18:53:52.153Z,8.56
2019-03-04T18:56:22.253Z,8.64
2019-03-04T18:58:49.146Z,8.64
2019-03-04T19:01:16.473Z,8.72
2019-03-04T19:03:43.734Z,8.60
2019-03-04T19:06:11.188Z,8.62
2019-03-04T19:08:38.586Z,8.52
2019-03-04T19:11:05.954Z,8.63
2019-03-04T19:13:33.201Z,8.63
2019-03-04T19:16:00.471Z,8.69
2019-03-04T19:18:27.830Z,8.63
2019-03-04T19:20:55.138Z,8.60
2019-03-04T19:23:22.415Z,8.83
2019-03-04T19:25:49.749Z,8.80
2019-03-04T19:28:17.348Z,8.64
2019-03-04T19:30:44.616Z,8.53
2019-03-04T19:33:12.064Z,8.65
2019-03-04T19:35:39.316Z,8.69
2019-03-04T19:38:06.567Z,8.62
2019-03-04T19:40:33.847Z,8.56
2019-03-04T19:43:01.099Z,8.56
2019-03-04T19:45:28.399Z,8.47
2019-03-04T19:47:57.151Z,8.45
2019-03-04T19:50:24.429Z,8.50
2019-03-04T19:52:51.829Z,8.45
2019-03-04T19:55:19.167Z,8.46
2019-03-04T19:57:46.499Z,8.25
2019-03-04T20:00:16.853Z,8.29
2019-03-04T20:02:44.150Z,8.36
2019-03-04T20:05:12.663Z,8.33
2019-03-04T20:07:40.530Z,8.43
2019-03-04T20:10:08.655Z,8.33
2019-03-04T20:12:35.925Z,8.19
2019-03-04T20:15:04.399Z,8.10
2019-03-04T20:17:31.897Z,8.23
2019-03-04T20:19:59.157Z,8.17
2019-03-04T20:22:26.445Z,8.08
2019-03-04T20:24:54.742Z,8.14
2019-03-04T20:27:21.988Z,8.18
2019-03-04T20:29:49.332Z,8.10
2019-03-04T20:32:16.625Z,8.08
2019-03-04T20:34:43.879Z,8.14
2019-03-04T20:37:11.127Z,8.03
2019-03-04T20:39:38.435Z,8.04
2019-03-04T20:42:05.688Z,8.18
2019-03-04T20:44:32.955Z,7.96
2019-03-04T20:47:00.264Z,7.98
2019-03-04T20:49:27.494Z,8.04
2019-03-04T20:51:54.771Z,8.09
2019-03-04T20:54:22.073Z,7.97
2019-03-04T20:56:49.415Z,8.00
2019-03-04T20:59:17.086Z,7.98
2019-03-04T21:01:44.509Z,8.10
2019-03-04T21:04:12.131Z,8.06
2019-03-04T21:06:39.457Z,8.14
2019-03-04T21:09:07.468Z,8.08
2019-03-04T21:11:34.921Z,8.19
2019-03-04T21:14:02.175Z,8.19
2019-03-04T21:16:29.463Z,8.19
2019-03-04T21:18:56.781Z,8.17
2019-03-04T21:21:24.106Z,8.34
2019-03-04T21:23:51.367Z,8.31
2019-03-04T21:26:24.516Z,8.26
2019-03-04T21:29:29.913Z,8.34
2019-03-04T21:32:15.161Z,8.28
2019-03-04T21:35:07.409Z,8.43
2019-03-04T21:37:40.894Z,8.29
2019-03-04T21:40:35.924Z,8.32
2019-03-04T21:43:17.588Z,8.31
2019-03-04T21:46:22.266Z,8.50
2019-03-04T21:48:53.551Z,8.64
2019-03-04T21:52:06.155Z,8.52
2019-03-04T21:54:34.865Z,8.45
2019-03-04T21:57:31.952Z,8.53
2019-03-04T21:59:59.523Z,8.56
2019-03-04T22:02:54.016Z,8.49
2019-03-04T22:05:23.090Z,8.54
2019-03-04T22:07:50.465Z,8.54
2019-03-04T22:10:17.871Z,8.50
2019-03-04T22:12:45.347Z,8.59
2019-03-04T22:15:13.063Z,8.55
2019-03-04T22:17:40.639Z,8.42
2019-03-04T22:20:08.829Z,8.44
2019-03-04T22:22:36.246Z,8.62
2019-03-04T22:25:04.167Z,8.81
2019-03-04T22:27:31.505Z,8.75
2019-03-04T22:29:58.814Z,8.47
2019-03-04T22:32:26.033Z,8.53
2019-03-04T22:34:53.285Z,8.50
2019-03-04T22:37:20.647Z,8.57
2019-03-04T22:39:47.883Z,8.60
2019-03-04T22:42:15.134Z,8.64
2019-03-04T22:44:42.420Z,8.65
2019-03-04T22:47:09.656Z,8.49
2019-03-04T22:49:36.955Z,8.34
2019-03-04T22:52:04.258Z,8.47
2019-03-04T22:54:31.502Z,8.36
2019-03-04T22:56:58.775Z,8.06
2019-03-04T22:59:26.045Z,8.02
2019-03-04T23:02:00.113Z,8.02
2019-03-04T23:04:51.366Z,7.91
2019-03-04T23:07:48.268Z,7.95
2019-03-04T23:10:39.289Z,7.90
2019-03-04T23:13:16.910Z,7.81
2019-03-04T23:15:46.925Z,7.93
2019-03-04T23:18:14.210Z,7.91
2019-03-04T23:20:44.155Z,7.88
2019-03-04T23:23:11.420Z,8.13
2019-03-04T23:25:38.666Z,8.13
2019-03-04T23:28:05.954Z,8.21
2019-03-04T23:30:33.186Z,8.14
2019-03-04T23:33:00.446Z,8.15
2019-03-04T23:35:28.943Z,8.30
2019-03-04T23:37:56.194Z,8.21
2019-03-04T23:40:25.933Z,8.13
2019-03-04T23:42:53.199Z,8.24
2019-03-04T23:45:20.454Z,8.11
2019-03-04T23:47:47.743Z,8.33
2019-03-04T23:50:19.692Z,8.21
2019-03-04T23:52:46.923Z,8.20
2019-03-04T23:55:14.439Z,8.16
2019-03-04T23:57:41.788Z,8.31
